sensor_id;sensor_type;location;lat;lon;timestamp;temperature;humidity
47354;DHT22;50657;48.830;2.282;2022-10-30T00:01:02;25.20;53.20
47354;DHT22;50657;48.830;2.282;2022-10-30T00:03:29;25.20;53.20
47354;DHT22;50657;48.830;2.282;2022-10-30T00:05:56;25.20;53.20
47354;DHT22;50657;48.830;2.282;2022-10-30T00:08:23;25.20;53.10
47354;DHT22;50657;48.830;2.282;2022-10-30T00:10:52;25.20;53.10
47354;DHT22;50657;48.830;2.282;2022-10-30T00:13:19;25.20;53.00
47354;DHT22;50657;48.830;2.282;2022-10-30T00:15:48;25.20;53.00
47354;DHT22;50657;48.830;2.282;2022-10-30T00:18:15;25.20;53.00
47354;DHT22;50657;48.830;2.282;2022-10-30T00:20:42;25.20;53.10
47354;DHT22;50657;48.830;2.282;2022-10-30T00:23:09;25.20;53.00
47354;DHT22;50657;48.830;2.282;2022-10-30T00:25:36;25.20;53.00
47354;DHT22;50657;48.830;2.282;2022-10-30T00:28:06;25.20;53.00
47354;DHT22;50657;48.830;2.282;2022-10-30T00:30:33;25.20;52.90
47354;DHT22;50657;48.830;2.282;2022-10-30T00:33:01;25.20;53.00
47354;DHT22;50657;48.830;2.282;2022-10-30T00:35:28;25.20;52.90
47354;DHT22;50657;48.830;2.282;2022-10-30T00:37:55;25.20;52.90
47354;DHT22;50657;48.830;2.282;2022-10-30T00:40:22;25.20;52.90
47354;DHT22;50657;48.830;2.282;2022-10-30T00:42:49;25.20;52.90
47354;DHT22;50657;48.830;2.282;2022-10-30T00:45:18;25.20;52.90
47354;DHT22;50657;48.830;2.282;2022-10-30T00:47:51;25.20;52.90
47354;DHT22;50657;48.830;2.282;2022-10-30T00:50:22;25.20;52.90
47354;DHT22;50657;48.830;2.282;2022-10-30T00:52:54;25.20;52.90
47354;DHT22;50657;48.830;2.282;2022-10-30T00:55:26;25.10;52.80
47354;DHT22;50657;48.830;2.282;2022-10-30T00:57:56;25.20;52.90
47354;DHT22;50657;48.830;2.282;2022-10-30T01:00:26;25.10;52.70
47354;DHT22;50657;48.830;2.282;2022-10-30T01:02:55;25.20;52.70
47354;DHT22;50657;48.830;2.282;2022-10-30T01:05:24;25.10;52.70
47354;DHT22;50657;48.830;2.282;2022-10-30T01:07:53;25.10;52.70
47354;DHT22;50657;48.830;2.282;2022-10-30T01:10:20;25.10;52.60
47354;DHT22;50657;48.830;2.282;2022-10-30T01:12:49;25.10;52.60
47354;DHT22;50657;48.830;2.282;2022-10-30T01:15:19;25.10;52.60
47354;DHT22;50657;48.830;2.282;2022-10-30T01:18:06;25.10;52.60
47354;DHT22;50657;48.830;2.282;2022-10-30T01:23:33;25.10;52.50
47354;DHT22;50657;48.830;2.282;2022-10-30T01:26:10;25.10;52.50
47354;DHT22;50657;48.830;2.282;2022-10-30T01:28:58;25.10;52.50
47354;DHT22;50657;48.830;2.282;2022-10-30T01:31:36;25.00;52.40
47354;DHT22;50657;48.830;2.282;2022-10-30T01:34:16;25.00;52.60
47354;DHT22;50657;48.830;2.282;2022-10-30T01:36:48;25.00;52.50
47354;DHT22;50657;48.830;2.282;2022-10-30T01:39:20;25.00;52.60
47354;DHT22;50657;48.830;2.282;2022-10-30T01:41:48;25.00;52.60
47354;DHT22;50657;48.830;2.282;2022-10-30T01:44:17;25.00;52.70
47354;DHT22;50657;48.830;2.282;2022-10-30T01:47:06;25.00;52.60
47354;DHT22;50657;48.830;2.282;2022-10-30T01:49:59;25.00;52.60
47354;DHT22;50657;48.830;2.282;2022-10-30T01:52:35;25.00;52.70
47354;DHT22;50657;48.830;2.282;2022-10-30T01:55:15;25.00;52.70
47354;DHT22;50657;48.830;2.282;2022-10-30T01:57:53;25.00;52.70
47354;DHT22;50657;48.830;2.282;2022-10-30T02:00:20;24.90;52.60
47354;DHT22;50657;48.830;2.282;2022-10-30T02:02:48;24.90;52.60
47354;DHT22;50657;48.830;2.282;2022-10-30T02:05:26;24.90;52.60
47354;DHT22;50657;48.830;2.282;2022-10-30T02:07:54;24.90;52.60
47354;DHT22;50657;48.830;2.282;2022-10-30T02:10:22;24.90;52.60
47354;DHT22;50657;48.830;2.282;2022-10-30T02:12:50;24.90;52.60
47354;DHT22;50657;48.830;2.282;2022-10-30T02:15:17;24.90;52.50
47354;DHT22;50657;48.830;2.282;2022-10-30T02:17:46;24.90;52.50
47354;DHT22;50657;48.830;2.282;2022-10-30T02:20:16;24.90;52.50
47354;DHT22;50657;48.830;2.282;2022-10-30T02:22:44;24.90;52.40
47354;DHT22;50657;48.830;2.282;2022-10-30T02:25:11;24.90;52.50
47354;DHT22;50657;48.830;2.282;2022-10-30T02:27:38;24.90;52.50
47354;DHT22;50657;48.830;2.282;2022-10-30T02:30:09;24.90;52.50
47354;DHT22;50657;48.830;2.282;2022-10-30T02:32:37;24.90;52.50
47354;DHT22;50657;48.830;2.282;2022-10-30T02:35:05;24.90;52.50
47354;DHT22;50657;48.830;2.282;2022-10-30T02:37:34;24.90;52.60
47354;DHT22;50657;48.830;2.282;2022-10-30T02:40:01;24.90;52.60
47354;DHT22;50657;48.830;2.282;2022-10-30T02:42:28;24.80;52.50
47354;DHT22;50657;48.830;2.282;2022-10-30T02:44:56;24.90;52.60
47354;DHT22;50657;48.830;2.282;2022-10-30T02:47:23;24.80;52.50
47354;DHT22;50657;48.830;2.282;2022-10-30T02:49:50;24.80;52.50
47354;DHT22;50657;48.830;2.282;2022-10-30T02:52:17;24.80;52.60
47354;DHT22;50657;48.830;2.282;2022-10-30T02:54:45;24.80;52.50
47354;DHT22;50657;48.830;2.282;2022-10-30T02:57:12;24.80;52.50
47354;DHT22;50657;48.830;2.282;2022-10-30T02:59:39;24.80;52.40
47354;DHT22;50657;48.830;2.282;2022-10-30T03:02:06;24.80;52.40
47354;DHT22;50657;48.830;2.282;2022-10-30T03:04:33;24.80;52.40
47354;DHT22;50657;48.830;2.282;2022-10-30T03:07:00;24.80;52.40
47354;DHT22;50657;48.830;2.282;2022-10-30T03:09:28;24.80;52.40
47354;DHT22;50657;48.830;2.282;2022-10-30T03:11:56;24.80;52.50
47354;DHT22;50657;48.830;2.282;2022-10-30T03:14:23;24.80;52.50
47354;DHT22;50657;48.830;2.282;2022-10-30T03:16:50;24.80;52.50
47354;DHT22;50657;48.830;2.282;2022-10-30T03:19:18;24.80;52.60
47354;DHT22;50657;48.830;2.282;2022-10-30T03:21:45;24.80;52.50
47354;DHT22;50657;48.830;2.282;2022-10-30T03:24:13;24.80;52.60
47354;DHT22;50657;48.830;2.282;2022-10-30T03:26:40;24.70;52.50
47354;DHT22;50657;48.830;2.282;2022-10-30T03:29:09;24.70;52.50
47354;DHT22;50657;48.830;2.282;2022-10-30T03:31:36;24.80;52.70
47354;DHT22;50657;48.830;2.282;2022-10-30T03:34:23;24.80;52.70
47354;DHT22;50657;48.830;2.282;2022-10-30T03:36:50;24.70;52.60
47354;DHT22;50657;48.830;2.282;2022-10-30T03:39:17;24.70;52.60
47354;DHT22;50657;48.830;2.282;2022-10-30T03:41:45;24.70;52.60
47354;DHT22;50657;48.830;2.282;2022-10-30T03:44:13;24.70;52.60
47354;DHT22;50657;48.830;2.282;2022-10-30T03:46:40;24.70;52.60
47354;DHT22;50657;48.830;2.282;2022-10-30T03:49:17;24.70;52.60
47354;DHT22;50657;48.830;2.282;2022-10-30T03:51:44;24.70;52.60
47354;DHT22;50657;48.830;2.282;2022-10-30T03:54:11;24.70;52.50
47354;DHT22;50657;48.830;2.282;2022-10-30T03:56:38;24.70;52.50
47354;DHT22;50657;48.830;2.282;2022-10-30T03:59:08;24.60;52.30
47354;DHT22;50657;48.830;2.282;2022-10-30T04:01:39;24.70;52.70
47354;DHT22;50657;48.830;2.282;2022-10-30T04:04:06;24.70;52.40
47354;DHT22;50657;48.830;2.282;2022-10-30T04:06:33;24.70;52.40
47354;DHT22;50657;48.830;2.282;2022-10-30T04:09:01;24.70;52.40
47354;DHT22;50657;48.830;2.282;2022-10-30T04:11:34;24.70;52.40
47354;DHT22;50657;48.830;2.282;2022-10-30T04:14:01;24.70;52.30
47354;DHT22;50657;48.830;2.282;2022-10-30T04:16:28;24.70;52.30
47354;DHT22;50657;48.830;2.282;2022-10-30T04:18:58;24.60;52.30
47354;DHT22;50657;48.830;2.282;2022-10-30T04:21:26;24.70;52.30
47354;DHT22;50657;48.830;2.282;2022-10-30T04:23:53;24.60;52.20
47354;DHT22;50657;48.830;2.282;2022-10-30T04:26:24;24.60;52.20
47354;DHT22;50657;48.830;2.282;2022-10-30T04:28:51;24.70;52.30
47354;DHT22;50657;48.830;2.282;2022-10-30T04:31:19;24.60;52.30
47354;DHT22;50657;48.830;2.282;2022-10-30T04:33:46;24.60;52.30
47354;DHT22;50657;48.830;2.282;2022-10-30T04:36:15;24.60;52.30
47354;DHT22;50657;48.830;2.282;2022-10-30T04:38:44;24.60;52.30
47354;DHT22;50657;48.830;2.282;2022-10-30T04:41:11;24.60;52.40
47354;DHT22;50657;48.830;2.282;2022-10-30T04:43:53;24.60;52.40
47354;DHT22;50657;48.830;2.282;2022-10-30T04:46:20;24.60;52.40
47354;DHT22;50657;48.830;2.282;2022-10-30T04:48:46;24.60;52.40
47354;DHT22;50657;48.830;2.282;2022-10-30T04:51:15;24.60;52.40
47354;DHT22;50657;48.830;2.282;2022-10-30T04:53:43;24.60;52.40
47354;DHT22;50657;48.830;2.282;2022-10-30T04:56:13;24.60;52.30
47354;DHT22;50657;48.830;2.282;2022-10-30T04:58:41;24.60;52.30
47354;DHT22;50657;48.830;2.282;2022-10-30T05:01:08;24.60;52.40
47354;DHT22;50657;48.830;2.282;2022-10-30T05:03:36;24.50;52.40
47354;DHT22;50657;48.830;2.282;2022-10-30T05:06:18;24.60;52.50
47354;DHT22;50657;48.830;2.282;2022-10-30T05:08:46;24.60;52.60
47354;DHT22;50657;48.830;2.282;2022-10-30T05:11:24;24.50;52.50
47354;DHT22;50657;48.830;2.282;2022-10-30T05:13:51;24.50;52.40
47354;DHT22;50657;48.830;2.282;2022-10-30T05:16:18;24.50;52.30
47354;DHT22;50657;48.830;2.282;2022-10-30T05:18:45;24.50;52.30
47354;DHT22;50657;48.830;2.282;2022-10-30T05:21:12;24.50;52.30
47354;DHT22;50657;48.830;2.282;2022-10-30T05:23:41;24.50;52.30
47354;DHT22;50657;48.830;2.282;2022-10-30T05:26:09;24.50;52.30
47354;DHT22;50657;48.830;2.282;2022-10-30T05:28:36;24.50;52.30
47354;DHT22;50657;48.830;2.282;2022-10-30T05:31:04;24.50;52.30
47354;DHT22;50657;48.830;2.282;2022-10-30T05:33:57;24.50;52.40
47354;DHT22;50657;48.830;2.282;2022-10-30T05:36:25;24.40;52.50
47354;DHT22;50657;48.830;2.282;2022-10-30T05:38:54;24.40;52.70
47354;DHT22;50657;48.830;2.282;2022-10-30T05:41:31;24.40;53.00
47354;DHT22;50657;48.830;2.282;2022-10-30T05:43:59;24.40;53.20
47354;DHT22;50657;48.830;2.282;2022-10-30T05:46:26;24.40;53.30
47354;DHT22;50657;48.830;2.282;2022-10-30T05:48:55;24.30;53.30
47354;DHT22;50657;48.830;2.282;2022-10-30T05:51:27;24.30;53.30
47354;DHT22;50657;48.830;2.282;2022-10-30T05:53:58;24.30;53.30
47354;DHT22;50657;48.830;2.282;2022-10-30T05:56:27;24.30;53.20
47354;DHT22;50657;48.830;2.282;2022-10-30T05:58:56;24.30;53.20
47354;DHT22;50657;48.830;2.282;2022-10-30T06:01:24;24.30;53.20
47354;DHT22;50657;48.830;2.282;2022-10-30T06:03:56;24.30;53.20
47354;DHT22;50657;48.830;2.282;2022-10-30T06:06:23;24.30;53.20
47354;DHT22;50657;48.830;2.282;2022-10-30T06:08:51;24.30;53.20
47354;DHT22;50657;48.830;2.282;2022-10-30T06:11:46;24.30;53.20
47354;DHT22;50657;48.830;2.282;2022-10-30T06:14:13;24.30;53.40
47354;DHT22;50657;48.830;2.282;2022-10-30T06:16:49;24.30;53.50
47354;DHT22;50657;48.830;2.282;2022-10-30T06:19:25;24.20;53.40
47354;DHT22;50657;48.830;2.282;2022-10-30T06:21:59;24.20;53.50
47354;DHT22;50657;48.830;2.282;2022-10-30T06:24:46;24.20;53.40
47354;DHT22;50657;48.830;2.282;2022-10-30T06:27:43;24.20;53.30
47354;DHT22;50657;48.830;2.282;2022-10-30T06:30:11;24.30;55.70
47354;DHT22;50657;48.830;2.282;2022-10-30T06:32:38;24.20;56.30
47354;DHT22;50657;48.830;2.282;2022-10-30T06:35:06;24.30;56.50
47354;DHT22;50657;48.830;2.282;2022-10-30T06:37:34;24.30;57.20
47354;DHT22;50657;48.830;2.282;2022-10-30T06:40:07;24.30;57.30
47354;DHT22;50657;48.830;2.282;2022-10-30T06:43:01;24.30;57.70
47354;DHT22;50657;48.830;2.282;2022-10-30T06:45:35;24.40;58.10
47354;DHT22;50657;48.830;2.282;2022-10-30T06:48:02;24.30;57.30
47354;DHT22;50657;48.830;2.282;2022-10-30T06:50:35;24.30;57.20
47354;DHT22;50657;48.830;2.282;2022-10-30T06:53:02;24.30;57.10
47354;DHT22;50657;48.830;2.282;2022-10-30T06:55:29;24.30;56.90
47354;DHT22;50657;48.830;2.282;2022-10-30T06:58:23;24.30;57.00
47354;DHT22;50657;48.830;2.282;2022-10-30T07:01:07;24.30;56.80
47354;DHT22;50657;48.830;2.282;2022-10-30T07:03:53;24.30;56.80
47354;DHT22;50657;48.830;2.282;2022-10-30T07:06:20;24.30;56.80
47354;DHT22;50657;48.830;2.282;2022-10-30T07:08:47;24.30;56.70
47354;DHT22;50657;48.830;2.282;2022-10-30T07:11:14;24.20;56.60
47354;DHT22;50657;48.830;2.282;2022-10-30T07:13:54;24.30;56.50
47354;DHT22;50657;48.830;2.282;2022-10-30T07:16:43;24.30;56.40
47354;DHT22;50657;48.830;2.282;2022-10-30T07:19:11;24.20;56.20
47354;DHT22;50657;48.830;2.282;2022-10-30T07:21:38;24.20;56.20
47354;DHT22;50657;48.830;2.282;2022-10-30T07:24:06;24.20;56.10
47354;DHT22;50657;48.830;2.282;2022-10-30T07:26:39;24.30;56.00
47354;DHT22;50657;48.830;2.282;2022-10-30T07:29:30;24.20;55.90
47354;DHT22;50657;48.830;2.282;2022-10-30T07:32:16;24.20;55.90
47354;DHT22;50657;48.830;2.282;2022-10-30T07:35:03;24.20;55.80
47354;DHT22;50657;48.830;2.282;2022-10-30T07:37:54;24.20;55.70
47354;DHT22;50657;48.830;2.282;2022-10-30T07:40:33;24.20;55.60
47354;DHT22;50657;48.830;2.282;2022-10-30T07:43:27;24.10;55.50
47354;DHT22;50657;48.830;2.282;2022-10-30T07:46:21;24.20;55.60
47354;DHT22;50657;48.830;2.282;2022-10-30T07:49:06;24.20;55.60
47354;DHT22;50657;48.830;2.282;2022-10-30T07:51:52;24.20;56.20
47354;DHT22;50657;48.830;2.282;2022-10-30T07:54:19;24.20;55.60
47354;DHT22;50657;48.830;2.282;2022-10-30T07:56:47;24.20;55.60
47354;DHT22;50657;48.830;2.282;2022-10-30T07:59:52;24.20;55.40
47354;DHT22;50657;48.830;2.282;2022-10-30T08:02:39;24.20;55.40
47354;DHT22;50657;48.830;2.282;2022-10-30T08:05:27;24.20;55.30
47354;DHT22;50657;48.830;2.282;2022-10-30T08:08:07;24.20;55.30
47354;DHT22;50657;48.830;2.282;2022-10-30T08:10:35;24.20;55.40
47354;DHT22;50657;48.830;2.282;2022-10-30T08:13:02;24.30;55.30
47354;DHT22;50657;48.830;2.282;2022-10-30T08:15:30;24.30;55.30
47354;DHT22;50657;48.830;2.282;2022-10-30T08:17:59;24.30;55.10
47354;DHT22;50657;48.830;2.282;2022-10-30T08:20:27;24.30;55.10
47354;DHT22;50657;48.830;2.282;2022-10-30T08:22:56;24.30;55.10
47354;DHT22;50657;48.830;2.282;2022-10-30T08:25:25;24.30;55.00
47354;DHT22;50657;48.830;2.282;2022-10-30T08:27:54;24.30;54.90
47354;DHT22;50657;48.830;2.282;2022-10-30T08:30:25;24.30;54.90
47354;DHT22;50657;48.830;2.282;2022-10-30T08:32:56;24.30;54.80
47354;DHT22;50657;48.830;2.282;2022-10-30T08:35:51;24.30;54.70
47354;DHT22;50657;48.830;2.282;2022-10-30T08:38:19;24.30;54.70
47354;DHT22;50657;48.830;2.282;2022-10-30T08:40:55;24.30;54.60
47354;DHT22;50657;48.830;2.282;2022-10-30T08:43:22;24.30;54.50
47354;DHT22;50657;48.830;2.282;2022-10-30T08:45:50;24.30;54.50
47354;DHT22;50657;48.830;2.282;2022-10-30T08:48:19;24.30;54.40
47354;DHT22;50657;48.830;2.282;2022-10-30T08:50:46;24.30;54.20
47354;DHT22;50657;48.830;2.282;2022-10-30T08:53:20;24.40;54.40
47354;DHT22;50657;48.830;2.282;2022-10-30T08:55:50;24.40;54.30
47354;DHT22;50657;48.830;2.282;2022-10-30T08:58:35;24.40;54.30
47354;DHT22;50657;48.830;2.282;2022-10-30T09:01:02;24.40;54.40
47354;DHT22;50657;48.830;2.282;2022-10-30T09:03:48;24.40;54.30
47354;DHT22;50657;48.830;2.282;2022-10-30T09:06:53;24.40;54.20
47354;DHT22;50657;48.830;2.282;2022-10-30T09:09:41;24.40;54.20
47354;DHT22;50657;48.830;2.282;2022-10-30T09:12:08;24.40;54.00
47354;DHT22;50657;48.830;2.282;2022-10-30T09:14:40;24.50;54.00
47354;DHT22;50657;48.830;2.282;2022-10-30T09:17:08;24.50;53.80
47354;DHT22;50657;48.830;2.282;2022-10-30T09:19:37;24.50;53.70
47354;DHT22;50657;48.830;2.282;2022-10-30T09:22:04;24.60;53.50
47354;DHT22;50657;48.830;2.282;2022-10-30T09:24:36;24.50;53.30
47354;DHT22;50657;48.830;2.282;2022-10-30T09:27:38;24.60;53.20
47354;DHT22;50657;48.830;2.282;2022-10-30T09:30:07;24.60;53.10
47354;DHT22;50657;48.830;2.282;2022-10-30T09:32:41;24.60;53.00
47354;DHT22;50657;48.830;2.282;2022-10-30T09:35:10;24.60;52.90
47354;DHT22;50657;48.830;2.282;2022-10-30T09:37:39;24.60;52.90
47354;DHT22;50657;48.830;2.282;2022-10-30T09:40:18;24.60;52.70
47354;DHT22;50657;48.830;2.282;2022-10-30T09:42:50;24.70;52.60
47354;DHT22;50657;48.830;2.282;2022-10-30T09:48:48;24.70;52.60
47354;DHT22;50657;48.830;2.282;2022-10-30T09:51:49;24.70;52.50
47354;DHT22;50657;48.830;2.282;2022-10-30T09:54:31;24.80;52.40
47354;DHT22;50657;48.830;2.282;2022-10-30T09:57:09;24.80;52.30
47354;DHT22;50657;48.830;2.282;2022-10-30T09:59:48;24.80;52.20
47354;DHT22;50657;48.830;2.282;2022-10-30T10:02:31;24.90;52.10
47354;DHT22;50657;48.830;2.282;2022-10-30T10:05:05;24.90;51.90
47354;DHT22;50657;48.830;2.282;2022-10-30T10:08:04;24.90;52.50
47354;DHT22;50657;48.830;2.282;2022-10-30T10:10:52;24.90;51.80
47354;DHT22;50657;48.830;2.282;2022-10-30T10:13:27;24.90;51.80
47354;DHT22;50657;48.830;2.282;2022-10-30T10:15:58;25.00;51.50
47354;DHT22;50657;48.830;2.282;2022-10-30T10:18:32;25.00;51.40
47354;DHT22;50657;48.830;2.282;2022-10-30T10:21:07;25.00;51.10
47354;DHT22;50657;48.830;2.282;2022-10-30T10:23:43;25.10;51.10
47354;DHT22;50657;48.830;2.282;2022-10-30T10:26:22;25.10;50.90
47354;DHT22;50657;48.830;2.282;2022-10-30T10:31:52;25.20;50.70
47354;DHT22;50657;48.830;2.282;2022-10-30T10:34:52;25.10;51.10
47354;DHT22;50657;48.830;2.282;2022-10-30T10:37:31;25.20;50.60
47354;DHT22;50657;48.830;2.282;2022-10-30T10:40:16;25.20;50.30
47354;DHT22;50657;48.830;2.282;2022-10-30T10:42:51;25.20;50.00
47354;DHT22;50657;48.830;2.282;2022-10-30T10:45:29;25.20;49.80
47354;DHT22;50657;48.830;2.282;2022-10-30T10:48:22;25.20;49.60
47354;DHT22;50657;48.830;2.282;2022-10-30T10:50:55;25.20;49.60
47354;DHT22;50657;48.830;2.282;2022-10-30T10:53:26;25.20;49.70
47354;DHT22;50657;48.830;2.282;2022-10-30T10:55:58;25.20;49.30
47354;DHT22;50657;48.830;2.282;2022-10-30T10:58:29;25.20;49.10
47354;DHT22;50657;48.830;2.282;2022-10-30T11:00:58;25.30;49.00
47354;DHT22;50657;48.830;2.282;2022-10-30T11:03:34;25.30;48.90
47354;DHT22;50657;48.830;2.282;2022-10-30T11:06:17;25.30;49.00
47354;DHT22;50657;48.830;2.282;2022-10-30T11:08:46;25.30;49.30
47354;DHT22;50657;48.830;2.282;2022-10-30T11:11:13;25.40;49.60
47354;DHT22;50657;48.830;2.282;2022-10-30T11:13:42;25.40;49.70
47354;DHT22;50657;48.830;2.282;2022-10-30T11:16:20;25.50;49.80
47354;DHT22;50657;48.830;2.282;2022-10-30T11:18:51;25.60;49.80
47354;DHT22;50657;48.830;2.282;2022-10-30T11:21:21;25.70;49.80
47354;DHT22;50657;48.830;2.282;2022-10-30T11:23:49;25.70;49.80
47354;DHT22;50657;48.830;2.282;2022-10-30T11:26:26;25.80;49.80
47354;DHT22;50657;48.830;2.282;2022-10-30T11:28:56;25.90;49.80
47354;DHT22;50657;48.830;2.282;2022-10-30T11:31:26;25.90;49.80
47354;DHT22;50657;48.830;2.282;2022-10-30T11:34:28;26.00;49.80
47354;DHT22;50657;48.830;2.282;2022-10-30T11:36:56;26.00;49.70
47354;DHT22;50657;48.830;2.282;2022-10-30T11:39:25;26.10;49.80
47354;DHT22;50657;48.830;2.282;2022-10-30T11:41:58;26.20;49.70
47354;DHT22;50657;48.830;2.282;2022-10-30T11:44:31;26.20;49.70
47354;DHT22;50657;48.830;2.282;2022-10-30T11:46:59;26.30;49.60
47354;DHT22;50657;48.830;2.282;2022-10-30T11:49:36;26.30;49.60
47354;DHT22;50657;48.830;2.282;2022-10-30T11:52:06;26.40;49.50
47354;DHT22;50657;48.830;2.282;2022-10-30T11:54:36;26.40;49.50
47354;DHT22;50657;48.830;2.282;2022-10-30T11:57:09;26.40;49.40
47354;DHT22;50657;48.830;2.282;2022-10-30T11:59:44;26.50;49.40
47354;DHT22;50657;48.830;2.282;2022-10-30T12:02:20;26.50;49.30
47354;DHT22;50657;48.830;2.282;2022-10-30T12:04:49;26.50;49.20
47354;DHT22;50657;48.830;2.282;2022-10-30T12:07:24;26.50;49.40
47354;DHT22;50657;48.830;2.282;2022-10-30T12:09:52;26.50;49.30
47354;DHT22;50657;48.830;2.282;2022-10-30T12:12:22;26.50;49.20
47354;DHT22;50657;48.830;2.282;2022-10-30T12:14:51;26.50;49.10
47354;DHT22;50657;48.830;2.282;2022-10-30T12:17:19;26.50;49.00
47354;DHT22;50657;48.830;2.282;2022-10-30T12:19:49;26.50;48.90
47354;DHT22;50657;48.830;2.282;2022-10-30T12:22:24;26.50;48.60
47354;DHT22;50657;48.830;2.282;2022-10-30T12:24:53;26.50;47.90
47354;DHT22;50657;48.830;2.282;2022-10-30T12:27:20;26.50;47.90
47354;DHT22;50657;48.830;2.282;2022-10-30T12:29:59;26.50;48.00
47354;DHT22;50657;48.830;2.282;2022-10-30T12:32:33;26.60;48.30
47354;DHT22;50657;48.830;2.282;2022-10-30T12:35:10;26.50;48.30
47354;DHT22;50657;48.830;2.282;2022-10-30T12:37:42;26.60;48.30
47354;DHT22;50657;48.830;2.282;2022-10-30T12:40:13;26.60;47.40
47354;DHT22;50657;48.830;2.282;2022-10-30T12:42:47;26.60;46.90
47354;DHT22;50657;48.830;2.282;2022-10-30T12:45:20;26.60;46.60
47354;DHT22;50657;48.830;2.282;2022-10-30T12:47:54;26.50;46.50
47354;DHT22;50657;48.830;2.282;2022-10-30T12:50:27;26.50;46.40
47354;DHT22;50657;48.830;2.282;2022-10-30T12:52:59;26.50;46.50
47354;DHT22;50657;48.830;2.282;2022-10-30T12:55:33;26.40;47.00
47354;DHT22;50657;48.830;2.282;2022-10-30T12:58:13;26.40;46.40
47354;DHT22;50657;48.830;2.282;2022-10-30T13:00:49;26.40;46.40
47354;DHT22;50657;48.830;2.282;2022-10-30T13:03:23;26.30;46.30
47354;DHT22;50657;48.830;2.282;2022-10-30T13:05:56;26.30;46.30
47354;DHT22;50657;48.830;2.282;2022-10-30T13:08:29;26.30;46.40
47354;DHT22;50657;48.830;2.282;2022-10-30T13:11:03;26.30;46.30
47354;DHT22;50657;48.830;2.282;2022-10-30T13:13:36;26.30;46.30
47354;DHT22;50657;48.830;2.282;2022-10-30T13:16:09;26.20;46.30
47354;DHT22;50657;48.830;2.282;2022-10-30T13:18:38;26.20;46.40
47354;DHT22;50657;48.830;2.282;2022-10-30T13:21:18;26.20;46.40
47354;DHT22;50657;48.830;2.282;2022-10-30T13:23:50;26.20;46.50
47354;DHT22;50657;48.830;2.282;2022-10-30T13:26:25;26.10;46.40
47354;DHT22;50657;48.830;2.282;2022-10-30T13:29:03;26.10;46.30
47354;DHT22;50657;48.830;2.282;2022-10-30T13:31:40;26.20;46.30
47354;DHT22;50657;48.830;2.282;2022-10-30T13:34:21;26.20;46.20
47354;DHT22;50657;48.830;2.282;2022-10-30T13:36:59;26.10;46.10
47354;DHT22;50657;48.830;2.282;2022-10-30T13:39:31;26.10;46.30
47354;DHT22;50657;48.830;2.282;2022-10-30T13:42:15;26.20;46.60
47354;DHT22;50657;48.830;2.282;2022-10-30T13:44:52;26.20;46.30
47354;DHT22;50657;48.830;2.282;2022-10-30T13:47:29;26.20;46.20
47354;DHT22;50657;48.830;2.282;2022-10-30T13:50:12;26.30;46.00
47354;DHT22;50657;48.830;2.282;2022-10-30T13:52:44;26.20;46.00
47354;DHT22;50657;48.830;2.282;2022-10-30T13:55:18;26.20;45.90
47354;DHT22;50657;48.830;2.282;2022-10-30T13:57:53;26.30;46.00
47354;DHT22;50657;48.830;2.282;2022-10-30T14:00:22;26.30;46.50
47354;DHT22;50657;48.830;2.282;2022-10-30T14:03:12;26.30;46.30
47354;DHT22;50657;48.830;2.282;2022-10-30T14:05:45;26.40;45.70
47354;DHT22;50657;48.830;2.282;2022-10-30T14:08:21;26.40;45.40
47354;DHT22;50657;48.830;2.282;2022-10-30T14:10:52;26.40;45.30
47354;DHT22;50657;48.830;2.282;2022-10-30T14:13:22;26.40;45.20
47354;DHT22;50657;48.830;2.282;2022-10-30T14:15:56;26.40;45.20
47354;DHT22;50657;48.830;2.282;2022-10-30T14:18:57;26.40;45.00
47354;DHT22;50657;48.830;2.282;2022-10-30T14:21:37;26.40;44.90
47354;DHT22;50657;48.830;2.282;2022-10-30T14:24:11;26.40;44.90
47354;DHT22;50657;48.830;2.282;2022-10-30T14:26:46;26.30;44.90
47354;DHT22;50657;48.830;2.282;2022-10-30T14:32:34;26.40;45.10
47354;DHT22;50657;48.830;2.282;2022-10-30T14:38:34;26.40;45.90
47354;DHT22;50657;48.830;2.282;2022-10-30T14:41:29;26.40;46.30
47354;DHT22;50657;48.830;2.282;2022-10-30T14:46:56;26.50;46.60
47354;DHT22;50657;48.830;2.282;2022-10-30T14:49:42;26.60;46.70
47354;DHT22;50657;48.830;2.282;2022-10-30T14:52:19;26.60;46.80
47354;DHT22;50657;48.830;2.282;2022-10-30T14:54:53;26.60;46.70
47354;DHT22;50657;48.830;2.282;2022-10-30T14:57:43;26.60;46.50
47354;DHT22;50657;48.830;2.282;2022-10-30T15:03:16;26.60;45.10
47354;DHT22;50657;48.830;2.282;2022-10-30T15:05:50;26.50;44.80
47354;DHT22;50657;48.830;2.282;2022-10-30T15:08:30;26.50;44.70
47354;DHT22;50657;48.830;2.282;2022-10-30T15:11:20;26.50;44.80
47354;DHT22;50657;48.830;2.282;2022-10-30T15:13:53;26.50;44.80
47354;DHT22;50657;48.830;2.282;2022-10-30T15:16:22;26.40;44.90
47354;DHT22;50657;48.830;2.282;2022-10-30T15:18:58;26.30;44.90
47354;DHT22;50657;48.830;2.282;2022-10-30T15:21:28;26.30;45.00
47354;DHT22;50657;48.830;2.282;2022-10-30T15:23:59;26.20;45.10
47354;DHT22;50657;48.830;2.282;2022-10-30T15:26:31;26.20;45.30
47354;DHT22;50657;48.830;2.282;2022-10-30T15:29:02;26.10;45.30
47354;DHT22;50657;48.830;2.282;2022-10-30T15:31:30;26.10;45.50
47354;DHT22;50657;48.830;2.282;2022-10-30T15:33:57;26.00;45.60
47354;DHT22;50657;48.830;2.282;2022-10-30T15:36:26;26.00;45.70
47354;DHT22;50657;48.830;2.282;2022-10-30T15:39:10;25.90;45.70
47354;DHT22;50657;48.830;2.282;2022-10-30T15:41:42;26.00;46.00
47354;DHT22;50657;48.830;2.282;2022-10-30T15:44:12;25.90;46.10
47354;DHT22;50657;48.830;2.282;2022-10-30T15:46:43;25.80;46.20
47354;DHT22;50657;48.830;2.282;2022-10-30T15:49:14;25.90;46.30
47354;DHT22;50657;48.830;2.282;2022-10-30T15:51:45;25.80;46.40
47354;DHT22;50657;48.830;2.282;2022-10-30T15:54:16;25.70;46.40
47354;DHT22;50657;48.830;2.282;2022-10-30T15:56:47;25.70;47.20
47354;DHT22;50657;48.830;2.282;2022-10-30T15:59:20;25.70;46.70
47354;DHT22;50657;48.830;2.282;2022-10-30T16:01:49;25.70;46.90
47354;DHT22;50657;48.830;2.282;2022-10-30T16:04:18;25.60;46.90
47354;DHT22;50657;48.830;2.282;2022-10-30T16:06:50;25.60;47.00
47354;DHT22;50657;48.830;2.282;2022-10-30T16:09:18;25.60;47.20
47354;DHT22;50657;48.830;2.282;2022-10-30T16:11:47;25.50;47.20
47354;DHT22;50657;48.830;2.282;2022-10-30T16:14:20;25.50;47.40
47354;DHT22;50657;48.830;2.282;2022-10-30T16:16:47;25.50;47.50
47354;DHT22;50657;48.830;2.282;2022-10-30T16:19:19;25.40;47.50
47354;DHT22;50657;48.830;2.282;2022-10-30T16:21:48;25.40;47.60
47354;DHT22;50657;48.830;2.282;2022-10-30T16:24:16;25.40;47.80
47354;DHT22;50657;48.830;2.282;2022-10-30T16:26:44;25.30;47.80
47354;DHT22;50657;48.830;2.282;2022-10-30T16:29:24;25.30;47.90